createdAt,value
2019-03-27T00:02:23.841Z,11.10
2019-03-27T00:04:49.800Z,9.17
2019-03-27T00:07:15.788Z,7.27
2019-03-27T00:09:41.829Z,14.23
2019-03-27T00:12:08.579Z,9.43
2019-03-27T00:14:34.561Z,9.43
2019-03-27T00:17:00.552Z,7.50
2019-03-27T00:19:26.515Z,6.03
2019-03-27T00:21:52.547Z,7.07
2019-03-27T00:24:18.511Z,8.40
2019-03-27T00:26:44.508Z,8.63
2019-03-27T00:29:11.208Z,6.73
2019-03-27T00:31:37.200Z,4.93
2019-03-27T00:34:03.167Z,9.70
2019-03-27T00:36:29.144Z,8.80
2019-03-27T00:38:55.099Z,6.70
2019-03-27T00:41:21.092Z,11.00
2019-03-27T00:43:47.068Z,8.10
2019-03-27T00:46:13.055Z,11.00
2019-03-27T00:48:39.041Z,14.03
2019-03-27T00:51:05.037Z,6.07
2019-03-27T00:53:31.003Z,7.43
2019-03-27T00:55:56.999Z,13.60
2019-03-27T00:58:23.711Z,7.70
2019-03-27T01:00:49.715Z,10.83
2019-03-27T01:03:15.702Z,4.70
2019-03-27T01:05:42.447Z,11.10
2019-03-27T01:08:08.420Z,7.53
2019-03-27T01:10:34.391Z,9.53
2019-03-27T01:13:00.379Z,8.77
2019-03-27T01:15:38.908Z,11.17
2019-03-27T01:17:52.363Z,9.10
2019-03-27T01:20:18.328Z,10.60
2019-03-27T01:22:44.376Z,8.87
2019-03-27T01:25:10.330Z,13.70
2019-03-27T01:27:36.328Z,10.37
2019-03-27T01:30:03.043Z,8.60
2019-03-27T01:32:29.037Z,9.10
2019-03-27T01:34:54.987Z,9.57
2019-03-27T01:37:21.005Z,14.37
2019-03-27T01:39:46.965Z,10.20
2019-03-27T01:42:13.679Z,15.90
2019-03-27T01:44:39.660Z,11.60
2019-03-27T01:47:05.671Z,9.20
2019-03-27T01:49:31.621Z,9.33
2019-03-27T01:51:57.633Z,13.00
2019-03-27T01:54:23.605Z,13.97
2019-03-27T01:56:49.578Z,10.87
2019-03-27T01:59:15.565Z,12.23
2019-03-27T02:01:42.258Z,7.67
2019-03-27T02:04:08.232Z,11.50
2019-03-27T02:06:34.933Z,10.60
2019-03-27T02:09:00.909Z,5.23
2019-03-27T02:11:26.873Z,12.73
2019-03-27T02:13:52.874Z,12.40
2019-03-27T02:16:18.850Z,6.00
2019-03-27T02:18:44.846Z,9.17
2019-03-27T02:21:10.815Z,7.00
2019-03-27T02:23:36.797Z,6.50
2019-03-27T02:26:02.760Z,8.80
2019-03-27T02:28:28.739Z,14.93
2019-03-27T02:30:54.705Z,9.10
2019-03-27T02:33:21.440Z,5.37
2019-03-27T02:35:48.160Z,8.03
2019-03-27T02:38:14.896Z,7.60
2019-03-27T02:40:41.635Z,12.33
2019-03-27T02:43:07.624Z,7.70
2019-03-27T02:45:33.590Z,7.50
2019-03-27T02:48:00.353Z,14.00
2019-03-27T02:50:26.319Z,7.67
2019-03-27T02:52:52.282Z,8.07
2019-03-27T02:55:19.037Z,8.83
2019-03-27T02:57:45.005Z,10.27
2019-03-27T03:00:10.987Z,8.20
2019-03-27T03:02:36.954Z,7.33
2019-03-27T03:05:02.958Z,8.73
2019-03-27T03:07:28.921Z,7.57
2019-03-27T03:09:54.917Z,7.23
2019-03-27T03:12:20.878Z,11.13
2019-03-27T03:14:47.638Z,10.63
2019-03-27T03:17:13.635Z,7.60
2019-03-27T03:19:39.664Z,5.33
2019-03-27T03:22:05.624Z,11.03
2019-03-27T03:24:31.631Z,7.97
2019-03-27T03:26:57.599Z,6.20
2019-03-27T03:29:23.604Z,6.23
2019-03-27T03:31:49.575Z,5.20
2019-03-27T03:34:16.321Z,9.53
2019-03-27T03:36:42.329Z,10.40
2019-03-27T03:39:08.329Z,8.97
2019-03-27T03:41:34.285Z,9.43
2019-03-27T03:44:00.272Z,8.00
2019-03-27T03:46:26.244Z,9.93
2019-03-27T03:48:52.982Z,7.53
2019-03-27T03:51:19.708Z,12.50
2019-03-27T03:53:46.466Z,9.80
2019-03-27T03:56:13.168Z,8.53
2019-03-27T03:58:39.140Z,6.37
2019-03-27T04:01:05.874Z,7.47
2019-03-27T04:03:32.582Z,6.87
2019-03-27T04:05:58.576Z,11.77
2019-03-27T04:08:24.714Z,9.83
2019-03-27T04:10:50.589Z,8.57
2019-03-27T04:13:16.579Z,7.03
2019-03-27T04:15:42.572Z,4.53
2019-03-27T04:18:08.533Z,7.90
2019-03-27T04:20:35.286Z,10.90
2019-03-27T04:23:02.002Z,6.80
2019-03-27T04:25:28.028Z,8.83
2019-03-27T04:27:54.765Z,9.10
2019-03-27T04:30:20.765Z,8.67
2019-03-27T04:32:46.749Z,10.53
2019-03-27T04:35:13.477Z,7.10
2019-03-27T04:37:40.192Z,8.37
2019-03-27T04:40:06.175Z,8.83
2019-03-27T04:42:32.143Z,9.80
2019-03-27T04:44:58.125Z,7.23
2019-03-27T04:47:32.082Z,11.00
2019-03-27T04:49:50.148Z,6.10
2019-03-27T04:52:16.112Z,9.17
2019-03-27T04:54:42.106Z,8.13
2019-03-27T04:57:08.093Z,8.10
2019-03-27T04:59:34.787Z,8.13
2019-03-27T05:02:00.797Z,11.10
2019-03-27T05:04:26.762Z,9.13
2019-03-27T05:06:52.775Z,7.60
2019-03-27T05:09:18.785Z,10.07
2019-03-27T05:11:44.777Z,6.07
2019-03-27T05:14:10.765Z,8.80
2019-03-27T05:16:36.756Z,4.70
2019-03-27T05:19:02.733Z,7.43
2019-03-27T05:21:29.481Z,5.53
2019-03-27T05:23:55.438Z,4.87
2019-03-27T05:26:21.427Z,5.47
2019-03-27T05:28:47.396Z,7.70
2019-03-27T05:31:13.404Z,7.47
2019-03-27T05:33:39.372Z,7.97
2019-03-27T05:36:05.369Z,6.33
2019-03-27T05:38:31.348Z,9.23
2019-03-27T05:40:57.625Z,8.00
2019-03-27T05:43:23.617Z,7.47
2019-03-27T05:45:49.621Z,6.70
2019-03-27T05:48:15.594Z,5.90
2019-03-27T05:50:41.606Z,6.90
2019-03-27T05:53:07.598Z,4.80
2019-03-27T05:55:33.589Z,7.77
2019-03-27T05:57:59.563Z,5.87
2019-03-27T06:00:25.507Z,9.53
2019-03-27T06:02:51.505Z,7.00
2019-03-27T06:05:17.482Z,5.83
2019-03-27T06:07:43.520Z,7.03
2019-03-27T06:10:10.221Z,8.60
2019-03-27T06:12:36.234Z,11.23
2019-03-27T06:15:02.182Z,10.43
2019-03-27T06:17:28.165Z,11.50
2019-03-27T06:19:54.135Z,7.67
2019-03-27T06:22:20.124Z,11.17
2019-03-27T06:24:46.106Z,7.60
2019-03-27T06:27:12.095Z,7.17
2019-03-27T06:29:38.052Z,8.33
2019-03-27T06:32:04.051Z,10.90
2019-03-27T06:34:30.780Z,8.87
2019-03-27T06:36:57.515Z,9.47
2019-03-27T06:39:23.483Z,10.47
2019-03-27T06:41:49.467Z,10.50
2019-03-27T06:44:16.201Z,10.90
2019-03-27T06:46:42.923Z,7.97
2019-03-27T06:49:08.922Z,10.37
2019-03-27T06:51:40.300Z,9.67
2019-03-27T06:54:00.956Z,9.50
2019-03-27T06:56:26.944Z,7.80
2019-03-27T06:58:54.997Z,9.67
2019-03-27T07:01:19.714Z,9.93
2019-03-27T07:03:46.466Z,8.53
2019-03-27T07:06:13.175Z,6.17
2019-03-27T07:08:39.180Z,12.43
2019-03-27T07:11:05.155Z,7.33
2019-03-27T07:13:31.900Z,9.53
2019-03-27T07:15:57.874Z,8.80
2019-03-27T07:18:23.859Z,9.27
2019-03-27T07:20:49.817Z,7.17
2019-03-27T07:23:15.816Z,6.30
2019-03-27T07:25:41.795Z,8.10
2019-03-27T07:28:08.555Z,10.70
2019-03-27T07:30:34.525Z,4.67
2019-03-27T07:33:00.509Z,4.30
2019-03-27T07:35:26.510Z,6.37
2019-03-27T07:37:53.222Z,6.57
2019-03-27T07:40:19.227Z,10.33
2019-03-27T07:42:45.229Z,4.63
2019-03-27T07:45:11.247Z,9.93
2019-03-27T07:47:37.232Z,6.73
2019-03-27T07:50:03.243Z,6.13
2019-03-27T07:52:29.208Z,6.63
2019-03-27T07:54:55.218Z,5.30
2019-03-27T07:57:21.937Z,8.07
2019-03-27T07:59:48.687Z,9.90
2019-03-27T08:02:14.683Z,8.70
2019-03-27T08:04:40.699Z,8.53
2019-03-27T08:07:06.664Z,9.00
2019-03-27T08:09:33.405Z,10.13
2019-03-27T08:12:00.132Z,6.87
2019-03-27T08:14:26.878Z,5.77
2019-03-27T08:16:53.592Z,6.77
2019-03-27T08:19:19.594Z,7.20
2019-03-27T08:21:45.588Z,4.83
2019-03-27T08:24:11.585Z,4.30
2019-03-27T08:26:38.343Z,7.10
2019-03-27T08:29:05.070Z,3.37
2019-03-27T08:31:31.832Z,3.20
2019-03-27T08:33:57.845Z,6.23
2019-03-27T08:36:24.565Z,5.23
2019-03-27T08:38:50.548Z,4.70
2019-03-27T08:41:16.544Z,4.97
2019-03-27T08:43:43.239Z,6.50
2019-03-27T08:46:09.251Z,4.87
2019-03-27T08:48:35.224Z,4.33
2019-03-27T08:51:01.266Z,4.40
2019-03-27T08:53:27.248Z,4.50
2019-03-27T08:55:53.279Z,5.07
2019-03-27T08:58:19.994Z,5.50
2019-03-27T09:00:46.014Z,5.70
2019-03-27T09:03:11.987Z,5.27
2019-03-27T09:05:37.982Z,7.23
2019-03-27T09:08:04.706Z,3.93
2019-03-27T09:10:30.711Z,4.57
2019-03-27T09:12:56.685Z,3.53
2019-03-27T09:15:23.434Z,4.13
2019-03-27T09:17:49.421Z,6.07
2019-03-27T09:20:15.416Z,3.53
2019-03-27T09:22:41.391Z,3.80
2019-03-27T09:25:08.128Z,4.20
2019-03-27T09:27:34.862Z,4.07
2019-03-27T09:30:01.588Z,5.37
2019-03-27T09:32:27.566Z,3.17
2019-03-27T09:34:53.524Z,3.97
2019-03-27T09:37:19.531Z,3.70
2019-03-27T09:39:45.487Z,7.23
2019-03-27T09:42:11.481Z,6.43
2019-03-27T09:44:37.480Z,4.53
2019-03-27T09:47:03.486Z,2.57
2019-03-27T09:49:29.451Z,3.03
2019-03-27T09:51:55.440Z,1.70
2019-03-27T09:54:21.412Z,4.23
2019-03-27T09:56:47.428Z,2.83
2019-03-27T09:59:13.423Z,3.67
2019-03-27T10:01:39.434Z,4.43
2019-03-27T10:04:05.401Z,3.10
2019-03-27T10:06:31.394Z,3.43
2019-03-27T10:08:57.377Z,3.10
2019-03-27T10:11:24.106Z,2.50
2019-03-27T10:13:50.095Z,3.47
2019-03-27T10:16:16.115Z,3.53
2019-03-27T10:18:42.087Z,2.73
2019-03-27T10:21:08.795Z,2.43
2019-03-27T10:23:34.792Z,5.40
2019-03-27T10:26:00.785Z,3.20
2019-03-27T10:28:26.808Z,1.93
2019-03-27T10:30:52.838Z,4.77
2019-03-27T10:33:18.838Z,4.67
2019-03-27T10:35:45.554Z,1.50
2019-03-27T10:38:11.580Z,1.37
2019-03-27T10:40:37.570Z,5.40
2019-03-27T10:43:03.563Z,2.03
2019-03-27T10:45:29.536Z,4.17
2019-03-27T10:47:55.540Z,3.83
2019-03-27T10:50:21.524Z,7.90
2019-03-27T10:52:48.283Z,1.63
2019-03-27T10:55:14.251Z,2.60
2019-03-27T10:57:40.230Z,3.90
2019-03-27T11:00:06.209Z,1.60
2019-03-27T11:02:32.208Z,3.57
2019-03-27T11:04:58.193Z,2.47
2019-03-27T11:07:24.190Z,2.60
2019-03-27T11:09:50.177Z,4.87
2019-03-27T11:12:16.151Z,3.87
2019-03-27T11:14:42.852Z,4.10
2019-03-27T11:17:08.844Z,3.67
2019-03-27T11:19:34.822Z,2.37
2019-03-27T11:22:00.824Z,2.47
2019-03-27T11:24:26.790Z,2.73
2019-03-27T11:26:52.807Z,3.57
2019-03-27T11:29:18.778Z,3.10
2019-03-27T11:31:44.770Z,2.23
2019-03-27T11:34:10.733Z,2.60
2019-03-27T11:36:36.690Z,5.63
2019-03-27T11:39:02.768Z,2.60
2019-03-27T11:41:28.822Z,6.57
2019-03-27T11:43:55.347Z,4.70
2019-03-27T11:46:21.579Z,4.53
2019-03-27T11:48:47.575Z,1.90
2019-03-27T11:51:13.556Z,2.77
2019-03-27T11:53:40.302Z,2.57
2019-03-27T11:56:06.315Z,1.73
2019-03-27T11:58:32.332Z,2.93
2019-03-27T12:00:59.052Z,2.47
2019-03-27T12:03:25.041Z,2.43
2019-03-27T12:05:51.015Z,3.70
2019-03-27T12:08:17.754Z,1.40
2019-03-27T12:10:44.470Z,2.23
2019-03-27T12:13:10.483Z,1.77
2019-03-27T12:15:36.450Z,3.77
2019-03-27T12:18:03.187Z,1.67
2019-03-27T12:20:29.146Z,2.30
2019-03-27T12:22:57.811Z,3.30
2019-03-27T12:25:21.202Z,3.03
2019-03-27T12:27:47.203Z,3.20
2019-03-27T12:30:13.153Z,2.60
2019-03-27T12:32:39.137Z,2.43
2019-03-27T12:35:05.871Z,3.50
2019-03-27T12:37:32.578Z,3.90
2019-03-27T12:39:58.587Z,2.87
2019-03-27T12:42:24.631Z,2.70
2019-03-27T12:44:50.630Z,4.17
2019-03-27T12:47:16.588Z,4.13
2019-03-27T12:49:42.602Z,5.20
2019-03-27T12:52:08.572Z,4.43
2019-03-27T12:54:34.589Z,4.10
2019-03-27T12:57:01.288Z,3.53
2019-03-27T12:59:27.290Z,3.77
2019-03-27T13:01:53.262Z,4.57
2019-03-27T13:04:20.007Z,4.73
2019-03-27T13:06:46.718Z,7.00
2019-03-27T13:09:12.714Z,5.00
2019-03-27T13:11:38.685Z,5.47
2019-03-27T13:14:05.514Z,4.17
2019-03-27T13:16:31.466Z,7.73
2019-03-27T13:18:57.511Z,5.60
2019-03-27T13:21:26.594Z,4.83
2019-03-27T13:23:49.523Z,7.63
2019-03-27T13:26:16.251Z,5.83
2019-03-27T13:28:48.665Z,5.93
2019-03-27T13:31:09.017Z,4.53
2019-03-27T13:33:35.021Z,8.27
2019-03-27T13:36:01.024Z,6.07
2019-03-27T13:38:26.985Z,4.93
2019-03-27T13:40:53.731Z,6.37
2019-03-27T13:43:20.450Z,6.23
2019-03-27T13:45:47.209Z,7.10
2019-03-27T13:48:13.172Z,6.63
2019-03-27T13:50:39.161Z,4.60
2019-03-27T13:53:05.881Z,9.47
2019-03-27T13:55:34.918Z,4.63
2019-03-27T13:57:57.917Z,6.30
2019-03-27T14:00:23.933Z,9.17
2019-03-27T14:02:49.907Z,2.97
2019-03-27T14:05:15.929Z,4.77
2019-03-27T14:07:41.933Z,5.20
2019-03-27T14:10:08.650Z,4.93
2019-03-27T14:12:34.615Z,6.20
2019-03-27T14:15:01.363Z,4.87
2019-03-27T14:17:28.082Z,5.10
2019-03-27T14:19:54.072Z,5.50
2019-03-27T14:22:20.067Z,6.70
2019-03-27T14:24:46.027Z,4.00
2019-03-27T14:27:12.043Z,5.93
2019-03-27T14:29:38.018Z,8.00
2019-03-27T14:32:04.008Z,6.07
2019-03-27T14:34:29.977Z,8.33
2019-03-27T14:36:55.972Z,6.87
2019-03-27T14:39:21.966Z,5.43
2019-03-27T14:41:47.983Z,7.00
2019-03-27T14:44:13.974Z,5.23
2019-03-27T14:46:39.957Z,6.73
2019-03-27T14:49:06.663Z,5.60
2019-03-27T14:51:32.651Z,8.57
2019-03-27T14:53:58.626Z,7.40
2019-03-27T14:56:24.639Z,4.63
2019-03-27T14:58:50.611Z,5.20
2019-03-27T15:01:16.592Z,4.30
2019-03-27T15:03:42.558Z,6.20
2019-03-27T15:06:08.563Z,3.80
2019-03-27T15:08:34.584Z,6.57
2019-03-27T15:11:01.355Z,6.83
2019-03-27T15:13:27.342Z,4.73
2019-03-27T15:15:54.101Z,7.33
2019-03-27T15:18:20.067Z,6.70
2019-03-27T15:20:46.081Z,6.67
2019-03-27T15:23:12.046Z,4.87
2019-03-27T15:25:38.037Z,6.77
2019-03-27T15:28:04.001Z,5.43
2019-03-27T15:30:30.735Z,8.17
2019-03-27T15:32:56.706Z,5.63
2019-03-27T15:35:22.663Z,9.43
2019-03-27T15:37:48.667Z,5.50
2019-03-27T15:40:14.622Z,6.10
2019-03-27T15:42:40.621Z,6.67
2019-03-27T15:45:06.681Z,5.80
2019-03-27T15:47:33.416Z,7.60
2019-03-27T15:49:59.381Z,9.10
2019-03-27T15:52:35.881Z,5.40
2019-03-27T15:54:51.440Z,6.47
2019-03-27T15:57:17.478Z,5.17
2019-03-27T15:59:43.448Z,6.27
2019-03-27T16:02:10.195Z,6.07
2019-03-27T16:04:38.637Z,6.17
2019-03-27T16:07:02.222Z,3.43
2019-03-27T16:09:28.937Z,4.00
2019-03-27T16:11:54.966Z,5.40
2019-03-27T16:14:20.936Z,4.10
2019-03-27T16:17:06.926Z,7.10
2019-03-27T16:19:12.984Z,5.07
2019-03-27T16:21:38.970Z,4.60
2019-03-27T16:24:06.817Z,5.97
2019-03-27T16:26:39.422Z,3.30
2019-03-27T16:29:06.133Z,5.53
2019-03-27T16:31:32.169Z,3.43
2019-03-27T16:33:58.163Z,6.23
2019-03-27T16:36:24.137Z,5.53
2019-03-27T16:38:50.863Z,4.77
2019-03-27T16:41:16.848Z,3.50
2019-03-27T16:43:44.337Z,3.60
2019-03-27T16:46:08.875Z,5.27
2019-03-27T16:48:34.892Z,4.27
2019-03-27T16:51:00.868Z,4.30
2019-03-27T16:53:26.875Z,3.07
2019-03-27T16:55:52.833Z,2.40
2019-03-27T16:58:18.813Z,3.73
2019-03-27T17:00:44.795Z,5.73
2019-03-27T17:03:10.777Z,7.23
2019-03-27T17:05:36.754Z,2.53
2019-03-27T17:08:02.752Z,5.67
2019-03-27T17:10:29.443Z,5.73
2019-03-27T17:12:55.461Z,4.10
2019-03-27T17:15:21.453Z,4.43
2019-03-27T17:17:47.527Z,3.10
2019-03-27T17:20:13.517Z,4.53
2019-03-27T17:22:39.517Z,6.77
2019-03-27T17:25:06.222Z,4.73
2019-03-27T17:27:32.220Z,1.97
2019-03-27T17:29:58.195Z,2.63
2019-03-27T17:32:24.935Z,1.93
2019-03-27T17:34:52.024Z,7.90
2019-03-27T17:37:17.693Z,3.83
2019-03-27T17:39:43.669Z,3.33
2019-03-27T17:42:09.696Z,2.83
2019-03-27T17:44:35.700Z,5.73
2019-03-27T17:47:01.658Z,4.23
2019-03-27T17:49:27.661Z,4.67
2019-03-27T17:51:53.634Z,4.17
2019-03-27T17:54:21.063Z,3.70
2019-03-27T17:56:46.409Z,4.30
2019-03-27T17:59:13.151Z,5.10
2019-03-27T18:01:39.846Z,3.97
2019-03-27T18:04:05.841Z,5.30
2019-03-27T18:06:31.815Z,3.43
2019-03-27T18:08:57.810Z,5.10
2019-03-27T18:11:23.813Z,3.73
2019-03-27T18:13:49.814Z,5.57
2019-03-27T18:16:17.289Z,6.70
2019-03-27T18:18:42.586Z,4.03
2019-03-27T18:21:08.577Z,7.43
2019-03-27T18:23:45.329Z,4.47
2019-03-27T18:26:01.331Z,5.03
2019-03-27T18:28:27.308Z,2.53
2019-03-27T18:30:53.312Z,5.87
2019-03-27T18:33:19.311Z,7.00
2019-03-27T18:35:45.292Z,4.50
2019-03-27T18:38:11.271Z,4.17
2019-03-27T18:40:37.259Z,3.77
2019-03-27T18:43:03.232Z,2.37
2019-03-27T18:45:29.972Z,5.13
2019-03-27T18:47:55.957Z,4.50
2019-03-27T18:50:22.734Z,3.83
2019-03-27T18:52:48.734Z,9.57
2019-03-27T18:55:25.916Z,4.17
2019-03-27T18:57:40.793Z,3.17
2019-03-27T19:00:07.523Z,4.10
2019-03-27T19:02:34.237Z,3.30
2019-03-27T19:05:00.451Z,5.37
2019-03-27T19:07:26.259Z,5.83
2019-03-27T19:09:52.278Z,7.77
2019-03-27T19:12:18.279Z,7.60
2019-03-27T19:14:44.289Z,6.83
2019-03-27T19:17:11.371Z,4.87
2019-03-27T19:19:37.596Z,6.83
2019-03-27T19:22:03.565Z,4.87
2019-03-27T19:24:29.581Z,6.07
2019-03-27T19:26:55.586Z,8.70
2019-03-27T19:29:21.581Z,5.47
2019-03-27T19:31:47.586Z,7.37
2019-03-27T19:34:14.292Z,5.83
2019-03-27T19:36:40.373Z,4.17
2019-03-27T19:39:06.348Z,6.13
2019-03-27T19:41:32.392Z,6.87
2019-03-27T19:43:58.381Z,5.87
2019-03-27T19:46:25.196Z,5.10
2019-03-27T19:48:51.215Z,4.47
2019-03-27T19:51:17.202Z,4.67
2019-03-27T19:53:43.912Z,5.17
2019-03-27T19:56:09.926Z,4.30
2019-03-27T19:58:35.908Z,3.30
2019-03-27T20:01:01.969Z,6.33
2019-03-27T20:03:27.937Z,4.87
2019-03-27T20:05:54.714Z,4.30
2019-03-27T20:08:20.715Z,6.23
2019-03-27T20:10:47.439Z,4.43
2019-03-27T20:13:13.416Z,5.43
2019-03-27T20:15:39.396Z,3.83
2019-03-27T20:18:06.136Z,3.40
2019-03-27T20:20:32.867Z,6.37
2019-03-27T20:22:58.863Z,6.97
2019-03-27T20:25:24.830Z,5.80
2019-03-27T20:27:51.294Z,4.37
2019-03-27T20:30:16.859Z,6.37
2019-03-27T20:32:42.849Z,4.57
2019-03-27T20:35:08.854Z,4.27
2019-03-27T20:37:34.868Z,8.13
2019-03-27T20:40:00.867Z,6.17
2019-03-27T20:42:27.614Z,3.40
2019-03-27T20:44:53.603Z,5.73
2019-03-27T20:47:19.604Z,3.97
2019-03-27T20:49:45.580Z,3.93
2019-03-27T20:52:12.300Z,6.40
2019-03-27T20:54:39.011Z,6.23
2019-03-27T20:57:05.024Z,5.37
2019-03-27T20:59:30.975Z,4.97
2019-03-27T21:01:57.012Z,7.63
2019-03-27T21:04:23.720Z,6.03
2019-03-27T21:06:49.708Z,7.30
2019-03-27T21:09:15.666Z,7.97
2019-03-27T21:11:41.650Z,5.47
2019-03-27T21:14:07.654Z,7.33
2019-03-27T21:16:34.356Z,5.13
2019-03-27T21:19:00.332Z,7.60
2019-03-27T21:21:26.300Z,5.97
2019-03-27T21:23:52.306Z,6.57
2019-03-27T21:26:18.286Z,4.30
2019-03-27T21:28:44.343Z,6.63
2019-03-27T21:31:10.537Z,7.33
2019-03-27T21:33:36.649Z,6.07
2019-03-27T21:36:02.658Z,5.40
2019-03-27T21:38:28.694Z,7.37
2019-03-27T21:40:55.456Z,7.60
2019-03-27T21:43:22.246Z,5.17
2019-03-27T21:45:48.266Z,9.67
2019-03-27T21:48:14.311Z,10.07
2019-03-27T21:50:40.322Z,6.23
2019-03-27T21:53:06.335Z,6.53
2019-03-27T21:55:42.263Z,8.53
2019-03-27T21:57:58.418Z,7.17
2019-03-27T22:00:25.191Z,7.87
2019-03-27T22:02:51.219Z,10.80
2019-03-27T22:05:17.222Z,4.87
2019-03-27T22:07:43.282Z,7.10
2019-03-27T22:10:09.324Z,9.97
2019-03-27T22:12:38.046Z,7.13
2019-03-27T22:15:03.163Z,8.67
2019-03-27T22:17:29.425Z,10.70
2019-03-27T22:19:55.885Z,10.33
2019-03-27T22:22:21.899Z,7.47
2019-03-27T22:24:47.919Z,6.53
2019-03-27T22:27:13.916Z,6.73
2019-03-27T22:29:39.962Z,8.47
2019-03-27T22:32:05.950Z,8.40
2019-03-27T22:34:32.033Z,7.40
2019-03-27T22:36:58.039Z,5.60
2019-03-27T22:39:24.102Z,6.70
2019-03-27T22:41:50.126Z,11.90
2019-03-27T22:44:16.917Z,9.87
2019-03-27T22:46:42.945Z,6.47
2019-03-27T22:49:09.021Z,9.73
2019-03-27T22:51:35.812Z,8.87
2019-03-27T22:54:01.928Z,7.77
2019-03-27T22:56:27.977Z,8.47
2019-03-27T22:58:54.011Z,7.13
2019-03-27T23:01:20.038Z,9.80
2019-03-27T23:03:46.180Z,10.50
2019-03-27T23:06:12.186Z,9.73
2019-03-27T23:08:38.204Z,10.47
2019-03-27T23:11:04.209Z,8.03
2019-03-27T23:13:30.219Z,7.87
2019-03-27T23:15:56.282Z,10.10
2019-03-27T23:18:22.312Z,10.87
2019-03-27T23:20:48.407Z,12.77
2019-03-27T23:23:14.419Z,13.70
2019-03-27T23:25:40.470Z,8.87
2019-03-27T23:28:06.462Z,12.67
2019-03-27T23:30:32.536Z,11.83
2019-03-27T23:32:58.548Z,12.00
2019-03-27T23:35:24.613Z,10.17
2019-03-27T23:37:50.683Z,12.87
2019-03-27T23:40:16.730Z,7.77
2019-03-27T23:42:42.789Z,7.93
2019-03-27T23:45:09.562Z,10.20
2019-03-27T23:47:35.585Z,10.10
2019-03-27T23:50:01.654Z,14.17
2019-03-27T23:52:27.653Z,11.63
2019-03-27T23:54:53.680Z,11.27
2019-03-27T23:57:19.676Z,14.00
2019-03-27T23:59:45.694Z,10.57
